sensor_id;sensor_type;location;lat;lon;timestamp;P1;durP1;ratioP1;P2;durP2;ratioP2
61015;SDS011;46902;52.920;6.536;2023-08-24T00:01:13;4.57;;;1.35;;
61015;SDS011;46902;52.920;6.536;2023-08-24T00:03:39;4.65;;;1.70;;
61015;SDS011;46902;52.920;6.536;2023-08-24T00:06:05;6.55;;;1.33;;
61015;SDS011;46902;52.920;6.536;2023-08-24T00:08:31;4.97;;;1.40;;
61015;SDS011;46902;52.920;6.536;2023-08-24T00:10:57;4.18;;;1.30;;
61015;SDS011;46902;52.920;6.536;2023-08-24T00:13:23;4.75;;;1.50;;
61015;SDS011;46902;52.920;6.536;2023-08-24T00:15:48;3.45;;;1.15;;
61015;SDS011;46902;52.920;6.536;2023-08-24T00:18:14;3.28;;;1.40;;
61015;SDS011;46902;52.920;6.536;2023-08-24T00:20:40;2.45;;;1.02;;
61015;SDS011;46902;52.920;6.536;2023-08-24T00:23:06;4.30;;;1.33;;
61015;SDS011;46902;52.920;6.536;2023-08-24T00:25:32;3.85;;;1.15;;
61015;SDS011;46902;52.920;6.536;2023-08-24T00:27:57;4.15;;;1.20;;
61015;SDS011;46902;52.920;6.536;2023-08-24T00:30:23;3.60;;;1.23;;
61015;SDS011;46902;52.920;6.536;2023-08-24T00:32:49;4.65;;;1.20;;
61015;SDS011;46902;52.920;6.536;2023-08-24T00:35:15;2.50;;;1.10;;
61015;SDS011;46902;52.920;6.536;2023-08-24T00:37:41;2.42;;;1.20;;
61015;SDS011;46902;52.920;6.536;2023-08-24T00:40:07;4.70;;;1.42;;
61015;SDS011;46902;52.920;6.536;2023-08-24T00:42:41;6.07;;;1.45;;
61015;SDS011;46902;52.920;6.536;2023-08-24T00:45:09;3.67;;;1.20;;
61015;SDS011;46902;52.920;6.536;2023-08-24T00:47:45;5.57;;;1.33;;
61015;SDS011;46902;52.920;6.536;2023-08-24T00:50:12;4.35;;;1.73;;
61015;SDS011;46902;52.920;6.536;2023-08-24T00:52:38;5.82;;;1.55;;
61015;SDS011;46902;52.920;6.536;2023-08-24T00:55:06;3.17;;;1.50;;
61015;SDS011;46902;52.920;6.536;2023-08-24T00:57:32;3.38;;;1.40;;
61015;SDS011;46902;52.920;6.536;2023-08-24T01:00:02;4.63;;;1.40;;
61015;SDS011;46902;52.920;6.536;2023-08-24T01:02:36;6.65;;;1.60;;
61015;SDS011;46902;52.920;6.536;2023-08-24T01:05:02;3.10;;;1.50;;
61015;SDS011;46902;52.920;6.536;2023-08-24T01:07:30;2.63;;;1.10;;
61015;SDS011;46902;52.920;6.536;2023-08-24T01:09:56;5.03;;;1.73;;
61015;SDS011;46902;52.920;6.536;2023-08-24T01:12:28;4.55;;;1.83;;
61015;SDS011;46902;52.920;6.536;2023-08-24T01:15:04;4.60;;;1.95;;
61015;SDS011;46902;52.920;6.536;2023-08-24T01:17:37;5.10;;;2.17;;
61015;SDS011;46902;52.920;6.536;2023-08-24T01:20:06;5.22;;;1.67;;
61015;SDS011;46902;52.920;6.536;2023-08-24T01:22:41;5.35;;;2.20;;
61015;SDS011;46902;52.920;6.536;2023-08-24T01:28:03;4.03;;;1.60;;
61015;SDS011;46902;52.920;6.536;2023-08-24T01:30:30;7.07;;;1.80;;
61015;SDS011;46902;52.920;6.536;2023-08-24T01:32:56;4.85;;;1.80;;
61015;SDS011;46902;52.920;6.536;2023-08-24T01:35:22;5.85;;;2.08;;
61015;SDS011;46902;52.920;6.536;2023-08-24T01:37:47;7.55;;;2.22;;
61015;SDS011;46902;52.920;6.536;2023-08-24T01:40:15;7.88;;;2.58;;
61015;SDS011;46902;52.920;6.536;2023-08-24T01:42:49;7.50;;;3.22;;
61015;SDS011;46902;52.920;6.536;2023-08-24T01:45:31;8.23;;;2.33;;
61015;SDS011;46902;52.920;6.536;2023-08-24T01:47:59;7.85;;;2.60;;
61015;SDS011;46902;52.920;6.536;2023-08-24T01:50:28;5.82;;;2.40;;
61015;SDS011;46902;52.920;6.536;2023-08-24T01:52:54;10.05;;;2.70;;
61015;SDS011;46902;52.920;6.536;2023-08-24T01:55:20;8.98;;;2.65;;
61015;SDS011;46902;52.920;6.536;2023-08-24T01:57:47;8.65;;;3.30;;
61015;SDS011;46902;52.920;6.536;2023-08-24T02:00:13;6.65;;;3.03;;
61015;SDS011;46902;52.920;6.536;2023-08-24T02:02:39;7.68;;;2.67;;
61015;SDS011;46902;52.920;6.536;2023-08-24T02:05:05;7.45;;;2.22;;
61015;SDS011;46902;52.920;6.536;2023-08-24T02:07:31;7.43;;;2.33;;
61015;SDS011;46902;52.920;6.536;2023-08-24T02:09:56;7.82;;;2.20;;
61015;SDS011;46902;52.920;6.536;2023-08-24T02:12:22;9.57;;;2.95;;
61015;SDS011;46902;52.920;6.536;2023-08-24T02:14:47;7.55;;;2.70;;
61015;SDS011;46902;52.920;6.536;2023-08-24T02:17:13;7.13;;;2.60;;
61015;SDS011;46902;52.920;6.536;2023-08-24T02:19:39;8.30;;;2.47;;
61015;SDS011;46902;52.920;6.536;2023-08-24T02:22:06;5.10;;;2.40;;
61015;SDS011;46902;52.920;6.536;2023-08-24T02:24:32;6.38;;;2.55;;
61015;SDS011;46902;52.920;6.536;2023-08-24T02:26:58;6.40;;;2.15;;
61015;SDS011;46902;52.920;6.536;2023-08-24T02:29:24;8.15;;;2.60;;
61015;SDS011;46902;52.920;6.536;2023-08-24T02:31:50;5.47;;;2.65;;
61015;SDS011;46902;52.920;6.536;2023-08-24T02:34:15;9.88;;;3.28;;
61015;SDS011;46902;52.920;6.536;2023-08-24T02:36:41;7.85;;;2.75;;
61015;SDS011;46902;52.920;6.536;2023-08-24T02:39:07;6.78;;;2.28;;
61015;SDS011;46902;52.920;6.536;2023-08-24T02:41:33;6.32;;;2.58;;
61015;SDS011;46902;52.920;6.536;2023-08-24T02:44:00;6.43;;;2.10;;
61015;SDS011;46902;52.920;6.536;2023-08-24T02:46:26;7.22;;;2.40;;
61015;SDS011;46902;52.920;6.536;2023-08-24T02:48:51;6.90;;;2.53;;
61015;SDS011;46902;52.920;6.536;2023-08-24T02:51:17;8.55;;;2.78;;
61015;SDS011;46902;52.920;6.536;2023-08-24T02:53:42;6.50;;;2.45;;
61015;SDS011;46902;52.920;6.536;2023-08-24T02:56:08;6.05;;;2.35;;
61015;SDS011;46902;52.920;6.536;2023-08-24T02:58:34;6.57;;;2.25;;
61015;SDS011;46902;52.920;6.536;2023-08-24T03:01:03;8.18;;;2.60;;
61015;SDS011;46902;52.920;6.536;2023-08-24T03:03:32;7.72;;;2.58;;
61015;SDS011;46902;52.920;6.536;2023-08-24T03:06:01;7.15;;;2.58;;
61015;SDS011;46902;52.920;6.536;2023-08-24T03:08:29;4.95;;;1.90;;
61015;SDS011;46902;52.920;6.536;2023-08-24T03:10:56;8.52;;;2.38;;
61015;SDS011;46902;52.920;6.536;2023-08-24T03:13:22;7.57;;;2.85;;
61015;SDS011;46902;52.920;6.536;2023-08-24T03:15:48;5.22;;;2.58;;
61015;SDS011;46902;52.920;6.536;2023-08-24T03:18:15;8.43;;;2.60;;
61015;SDS011;46902;52.920;6.536;2023-08-24T03:20:41;10.80;;;2.92;;
61015;SDS011;46902;52.920;6.536;2023-08-24T03:23:07;6.72;;;2.47;;
61015;SDS011;46902;52.920;6.536;2023-08-24T03:25:36;8.90;;;2.67;;
61015;SDS011;46902;52.920;6.536;2023-08-24T03:28:03;6.35;;;3.25;;
61015;SDS011;46902;52.920;6.536;2023-08-24T03:30:29;7.18;;;2.50;;
61015;SDS011;46902;52.920;6.536;2023-08-24T03:32:55;9.35;;;2.63;;
61015;SDS011;46902;52.920;6.536;2023-08-24T03:35:21;9.80;;;3.00;;
61015;SDS011;46902;52.920;6.536;2023-08-24T03:37:47;9.52;;;3.08;;
61015;SDS011;46902;52.920;6.536;2023-08-24T03:40:12;8.77;;;3.05;;
61015;SDS011;46902;52.920;6.536;2023-08-24T03:42:38;7.97;;;2.90;;
61015;SDS011;46902;52.920;6.536;2023-08-24T03:45:04;7.70;;;2.80;;
61015;SDS011;46902;52.920;6.536;2023-08-24T03:47:30;6.85;;;2.75;;
61015;SDS011;46902;52.920;6.536;2023-08-24T03:49:56;6.75;;;2.50;;
61015;SDS011;46902;52.920;6.536;2023-08-24T03:52:22;8.05;;;2.97;;
61015;SDS011;46902;52.920;6.536;2023-08-24T03:54:47;9.20;;;3.15;;
61015;SDS011;46902;52.920;6.536;2023-08-24T03:57:13;11.05;;;3.35;;
61015;SDS011;46902;52.920;6.536;2023-08-24T03:59:40;6.65;;;2.80;;
61015;SDS011;46902;52.920;6.536;2023-08-24T04:02:06;11.27;;;3.08;;
61015;SDS011;46902;52.920;6.536;2023-08-24T04:04:31;6.90;;;2.88;;
61015;SDS011;46902;52.920;6.536;2023-08-24T04:06:57;7.05;;;3.13;;
61015;SDS011;46902;52.920;6.536;2023-08-24T04:09:23;9.10;;;2.80;;
61015;SDS011;46902;52.920;6.536;2023-08-24T04:11:48;7.85;;;2.78;;
61015;SDS011;46902;52.920;6.536;2023-08-24T04:14:14;7.32;;;2.70;;
61015;SDS011;46902;52.920;6.536;2023-08-24T04:16:40;8.52;;;2.67;;
61015;SDS011;46902;52.920;6.536;2023-08-24T04:19:07;7.10;;;2.42;;
61015;SDS011;46902;52.920;6.536;2023-08-24T04:21:32;7.22;;;2.75;;
61015;SDS011;46902;52.920;6.536;2023-08-24T04:23:58;6.22;;;2.92;;
61015;SDS011;46902;52.920;6.536;2023-08-24T04:26:24;8.65;;;3.10;;
61015;SDS011;46902;52.920;6.536;2023-08-24T04:28:49;7.80;;;3.38;;
61015;SDS011;46902;52.920;6.536;2023-08-24T04:31:15;8.32;;;3.60;;
61015;SDS011;46902;52.920;6.536;2023-08-24T04:33:41;11.07;;;3.45;;
61015;SDS011;46902;52.920;6.536;2023-08-24T04:36:06;8.85;;;3.45;;
61015;SDS011;46902;52.920;6.536;2023-08-24T04:38:32;8.75;;;3.35;;
61015;SDS011;46902;52.920;6.536;2023-08-24T04:40:57;9.32;;;3.67;;
61015;SDS011;46902;52.920;6.536;2023-08-24T04:43:24;7.20;;;3.20;;
61015;SDS011;46902;52.920;6.536;2023-08-24T04:45:50;9.40;;;4.32;;
61015;SDS011;46902;52.920;6.536;2023-08-24T04:48:18;9.90;;;4.55;;
61015;SDS011;46902;52.920;6.536;2023-08-24T04:50:44;10.80;;;4.30;;
61015;SDS011;46902;52.920;6.536;2023-08-24T04:53:14;10.35;;;4.53;;
61015;SDS011;46902;52.920;6.536;2023-08-24T04:55:41;9.20;;;4.38;;
61015;SDS011;46902;52.920;6.536;2023-08-24T04:58:07;10.48;;;4.80;;
61015;SDS011;46902;52.920;6.536;2023-08-24T05:00:34;8.23;;;4.57;;
61015;SDS011;46902;52.920;6.536;2023-08-24T05:03:01;12.48;;;5.05;;
61015;SDS011;46902;52.920;6.536;2023-08-24T05:05:28;12.48;;;5.32;;
61015;SDS011;46902;52.920;6.536;2023-08-24T05:07:55;9.57;;;4.55;;
61015;SDS011;46902;52.920;6.536;2023-08-24T05:10:20;9.43;;;4.65;;
61015;SDS011;46902;52.920;6.536;2023-08-24T05:12:46;9.88;;;5.32;;
61015;SDS011;46902;52.920;6.536;2023-08-24T05:15:12;12.20;;;4.90;;
61015;SDS011;46902;52.920;6.536;2023-08-24T05:17:38;9.70;;;5.03;;
61015;SDS011;46902;52.920;6.536;2023-08-24T05:20:05;12.43;;;5.82;;
61015;SDS011;46902;52.920;6.536;2023-08-24T05:22:37;7.70;;;4.90;;
61015;SDS011;46902;52.920;6.536;2023-08-24T05:25:03;9.93;;;5.18;;
61015;SDS011;46902;52.920;6.536;2023-08-24T05:27:29;9.32;;;4.97;;
61015;SDS011;46902;52.920;6.536;2023-08-24T05:29:55;13.20;;;5.07;;
61015;SDS011;46902;52.920;6.536;2023-08-24T05:32:21;11.82;;;4.90;;
61015;SDS011;46902;52.920;6.536;2023-08-24T05:34:47;9.05;;;4.90;;
61015;SDS011;46902;52.920;6.536;2023-08-24T05:37:12;10.02;;;4.97;;
61015;SDS011;46902;52.920;6.536;2023-08-24T05:39:38;13.57;;;4.85;;
61015;SDS011;46902;52.920;6.536;2023-08-24T05:42:03;8.52;;;4.75;;
61015;SDS011;46902;52.920;6.536;2023-08-24T05:44:29;8.18;;;4.40;;
61015;SDS011;46902;52.920;6.536;2023-08-24T05:46:55;11.57;;;4.95;;
61015;SDS011;46902;52.920;6.536;2023-08-24T05:49:21;12.18;;;4.57;;
61015;SDS011;46902;52.920;6.536;2023-08-24T05:51:46;8.27;;;4.70;;
61015;SDS011;46902;52.920;6.536;2023-08-24T05:54:15;8.60;;;4.55;;
61015;SDS011;46902;52.920;6.536;2023-08-24T05:56:43;9.23;;;4.63;;
61015;SDS011;46902;52.920;6.536;2023-08-24T05:59:09;7.65;;;4.45;;
61015;SDS011;46902;52.920;6.536;2023-08-24T06:01:35;6.80;;;4.05;;
61015;SDS011;46902;52.920;6.536;2023-08-24T06:04:04;9.68;;;3.80;;
61015;SDS011;46902;52.920;6.536;2023-08-24T06:06:30;10.98;;;3.97;;
61015;SDS011;46902;52.920;6.536;2023-08-24T06:08:55;8.18;;;3.40;;
61015;SDS011;46902;52.920;6.536;2023-08-24T06:11:21;9.50;;;3.45;;
61015;SDS011;46902;52.920;6.536;2023-08-24T06:13:48;8.77;;;3.20;;
61015;SDS011;46902;52.920;6.536;2023-08-24T06:16:13;8.43;;;3.50;;
61015;SDS011;46902;52.920;6.536;2023-08-24T06:18:39;7.40;;;3.00;;
61015;SDS011;46902;52.920;6.536;2023-08-24T06:21:04;10.95;;;2.95;;
61015;SDS011;46902;52.920;6.536;2023-08-24T06:23:30;10.60;;;2.78;;
61015;SDS011;46902;52.920;6.536;2023-08-24T06:25:56;6.57;;;2.63;;
61015;SDS011;46902;52.920;6.536;2023-08-24T06:28:21;6.78;;;2.40;;
61015;SDS011;46902;52.920;6.536;2023-08-24T06:30:47;7.60;;;2.35;;
61015;SDS011;46902;52.920;6.536;2023-08-24T06:33:13;7.63;;;2.80;;
61015;SDS011;46902;52.920;6.536;2023-08-24T06:35:38;7.18;;;2.38;;
61015;SDS011;46902;52.920;6.536;2023-08-24T06:38:05;10.95;;;3.10;;
61015;SDS011;46902;52.920;6.536;2023-08-24T06:40:31;7.18;;;2.50;;
61015;SDS011;46902;52.920;6.536;2023-08-24T06:42:57;8.40;;;2.42;;
61015;SDS011;46902;52.920;6.536;2023-08-24T06:45:22;8.65;;;2.78;;
61015;SDS011;46902;52.920;6.536;2023-08-24T06:47:48;9.38;;;2.58;;
61015;SDS011;46902;52.920;6.536;2023-08-24T06:50:14;9.90;;;2.50;;
61015;SDS011;46902;52.920;6.536;2023-08-24T06:52:40;7.47;;;3.03;;
61015;SDS011;46902;52.920;6.536;2023-08-24T06:55:08;7.70;;;2.70;;
61015;SDS011;46902;52.920;6.536;2023-08-24T06:57:34;6.95;;;2.90;;
61015;SDS011;46902;52.920;6.536;2023-08-24T07:00:00;7.93;;;2.92;;
61015;SDS011;46902;52.920;6.536;2023-08-24T07:02:26;10.25;;;3.90;;
61015;SDS011;46902;52.920;6.536;2023-08-24T07:04:52;8.63;;;3.42;;
61015;SDS011;46902;52.920;6.536;2023-08-24T07:07:17;5.22;;;3.10;;
61015;SDS011;46902;52.920;6.536;2023-08-24T07:09:43;8.38;;;3.13;;
61015;SDS011;46902;52.920;6.536;2023-08-24T07:12:08;9.45;;;4.22;;
61015;SDS011;46902;52.920;6.536;2023-08-24T07:14:38;9.57;;;3.92;;
61015;SDS011;46902;52.920;6.536;2023-08-24T07:17:04;6.97;;;3.65;;
61015;SDS011;46902;52.920;6.536;2023-08-24T07:19:31;9.40;;;3.90;;
61015;SDS011;46902;52.920;6.536;2023-08-24T07:21:56;8.65;;;4.13;;
61015;SDS011;46902;52.920;6.536;2023-08-24T07:24:22;11.57;;;3.90;;
61015;SDS011;46902;52.920;6.536;2023-08-24T07:26:51;8.00;;;4.32;;
61015;SDS011;46902;52.920;6.536;2023-08-24T07:29:20;6.22;;;3.63;;
61015;SDS011;46902;52.920;6.536;2023-08-24T07:31:47;11.70;;;4.63;;
61015;SDS011;46902;52.920;6.536;2023-08-24T07:34:13;10.65;;;5.13;;
61015;SDS011;46902;52.920;6.536;2023-08-24T07:36:39;8.40;;;3.97;;
61015;SDS011;46902;52.920;6.536;2023-08-24T07:39:05;6.97;;;3.92;;
61015;SDS011;46902;52.920;6.536;2023-08-24T07:41:30;9.93;;;4.30;;
61015;SDS011;46902;52.920;6.536;2023-08-24T07:43:56;10.45;;;4.55;;
61015;SDS011;46902;52.920;6.536;2023-08-24T07:46:22;10.00;;;4.00;;
61015;SDS011;46902;52.920;6.536;2023-08-24T07:48:47;7.68;;;3.97;;
61015;SDS011;46902;52.920;6.536;2023-08-24T07:51:13;7.63;;;4.22;;
61015;SDS011;46902;52.920;6.536;2023-08-24T07:53:38;9.40;;;4.72;;
61015;SDS011;46902;52.920;6.536;2023-08-24T07:56:04;7.90;;;4.00;;
61015;SDS011;46902;52.920;6.536;2023-08-24T07:58:30;10.70;;;4.18;;
61015;SDS011;46902;52.920;6.536;2023-08-24T08:00:57;12.50;;;4.82;;
61015;SDS011;46902;52.920;6.536;2023-08-24T08:03:23;10.05;;;4.95;;
61015;SDS011;46902;52.920;6.536;2023-08-24T08:05:49;11.68;;;5.13;;
61015;SDS011;46902;52.920;6.536;2023-08-24T08:08:15;8.80;;;4.90;;
61015;SDS011;46902;52.920;6.536;2023-08-24T08:10:41;12.15;;;4.45;;
61015;SDS011;46902;52.920;6.536;2023-08-24T08:13:07;6.50;;;4.13;;
61015;SDS011;46902;52.920;6.536;2023-08-24T08:15:36;10.00;;;5.03;;
61015;SDS011;46902;52.920;6.536;2023-08-24T08:18:03;10.90;;;4.78;;
61015;SDS011;46902;52.920;6.536;2023-08-24T08:20:29;10.05;;;4.40;;
61015;SDS011;46902;52.920;6.536;2023-08-24T08:22:55;10.52;;;4.28;;
61015;SDS011;46902;52.920;6.536;2023-08-24T08:25:21;13.32;;;5.05;;
61015;SDS011;46902;52.920;6.536;2023-08-24T08:27:47;8.80;;;5.07;;
61015;SDS011;46902;52.920;6.536;2023-08-24T08:30:14;7.82;;;4.32;;
61015;SDS011;46902;52.920;6.536;2023-08-24T08:32:40;10.13;;;4.88;;
61015;SDS011;46902;52.920;6.536;2023-08-24T08:35:06;9.00;;;4.50;;
61015;SDS011;46902;52.920;6.536;2023-08-24T08:37:33;9.20;;;4.65;;
61015;SDS011;46902;52.920;6.536;2023-08-24T08:39:58;9.73;;;5.25;;
61015;SDS011;46902;52.920;6.536;2023-08-24T08:42:24;11.77;;;4.78;;
61015;SDS011;46902;52.920;6.536;2023-08-24T08:44:50;9.18;;;4.80;;
61015;SDS011;46902;52.920;6.536;2023-08-24T08:47:19;7.95;;;4.47;;
61015;SDS011;46902;52.920;6.536;2023-08-24T08:49:45;9.27;;;4.78;;
61015;SDS011;46902;52.920;6.536;2023-08-24T08:52:13;9.82;;;5.05;;
61015;SDS011;46902;52.920;6.536;2023-08-24T08:54:39;8.98;;;5.20;;
61015;SDS011;46902;52.920;6.536;2023-08-24T08:57:05;10.40;;;5.15;;
61015;SDS011;46902;52.920;6.536;2023-08-24T08:59:32;9.00;;;5.38;;
61015;SDS011;46902;52.920;6.536;2023-08-24T09:02:00;9.68;;;4.80;;
61015;SDS011;46902;52.920;6.536;2023-08-24T09:04:29;9.00;;;4.88;;
61015;SDS011;46902;52.920;6.536;2023-08-24T09:06:56;7.60;;;4.65;;
61015;SDS011;46902;52.920;6.536;2023-08-24T09:09:22;8.95;;;5.22;;
61015;SDS011;46902;52.920;6.536;2023-08-24T09:11:48;9.65;;;4.82;;
61015;SDS011;46902;52.920;6.536;2023-08-24T09:14:14;9.02;;;4.85;;
61015;SDS011;46902;52.920;6.536;2023-08-24T09:16:41;10.50;;;5.72;;
61015;SDS011;46902;52.920;6.536;2023-08-24T09:19:07;11.60;;;5.63;;
61015;SDS011;46902;52.920;6.536;2023-08-24T09:21:38;12.75;;;5.95;;
61015;SDS011;46902;52.920;6.536;2023-08-24T09:24:07;8.68;;;4.55;;
61015;SDS011;46902;52.920;6.536;2023-08-24T09:26:34;11.23;;;5.90;;
61015;SDS011;46902;52.920;6.536;2023-08-24T09:29:10;11.48;;;5.43;;
61015;SDS011;46902;52.920;6.536;2023-08-24T09:31:40;12.38;;;5.90;;
61015;SDS011;46902;52.920;6.536;2023-08-24T09:34:09;8.80;;;5.80;;
61015;SDS011;46902;52.920;6.536;2023-08-24T09:36:35;9.60;;;6.68;;
61015;SDS011;46902;52.920;6.536;2023-08-24T09:39:02;11.18;;;5.95;;
61015;SDS011;46902;52.920;6.536;2023-08-24T09:41:48;9.82;;;6.05;;
61015;SDS011;46902;52.920;6.536;2023-08-24T09:44:18;11.43;;;6.85;;
61015;SDS011;46902;52.920;6.536;2023-08-24T09:46:44;9.45;;;6.43;;
61015;SDS011;46902;52.920;6.536;2023-08-24T09:49:11;10.38;;;6.88;;
61015;SDS011;46902;52.920;6.536;2023-08-24T09:51:37;11.25;;;6.88;;
61015;SDS011;46902;52.920;6.536;2023-08-24T09:54:05;9.15;;;6.97;;
61015;SDS011;46902;52.920;6.536;2023-08-24T09:56:34;10.68;;;6.85;;
61015;SDS011;46902;52.920;6.536;2023-08-24T09:59:04;8.45;;;6.60;;
61015;SDS011;46902;52.920;6.536;2023-08-24T10:01:38;14.00;;;7.75;;
61015;SDS011;46902;52.920;6.536;2023-08-24T10:04:07;10.55;;;6.80;;
61015;SDS011;46902;52.920;6.536;2023-08-24T10:06:34;12.23;;;7.32;;
61015;SDS011;46902;52.920;6.536;2023-08-24T10:09:02;10.43;;;6.93;;
61015;SDS011;46902;52.920;6.536;2023-08-24T10:11:33;12.23;;;6.57;;
61015;SDS011;46902;52.920;6.536;2023-08-24T10:14:12;11.73;;;6.63;;
61015;SDS011;46902;52.920;6.536;2023-08-24T10:16:42;12.95;;;6.35;;
61015;SDS011;46902;52.920;6.536;2023-08-24T10:19:11;10.55;;;6.68;;
61015;SDS011;46902;52.920;6.536;2023-08-24T10:21:38;11.70;;;6.30;;
61015;SDS011;46902;52.920;6.536;2023-08-24T10:24:05;10.70;;;5.80;;
61015;SDS011;46902;52.920;6.536;2023-08-24T10:26:33;12.40;;;6.28;;
61015;SDS011;46902;52.920;6.536;2023-08-24T10:28:59;11.23;;;5.65;;
61015;SDS011;46902;52.920;6.536;2023-08-24T10:31:25;10.82;;;5.65;;
61015;SDS011;46902;52.920;6.536;2023-08-24T10:33:51;8.10;;;5.40;;
61015;SDS011;46902;52.920;6.536;2023-08-24T10:36:19;9.50;;;5.07;;
61015;SDS011;46902;52.920;6.536;2023-08-24T10:38:47;8.95;;;5.20;;
61015;SDS011;46902;52.920;6.536;2023-08-24T10:41:13;9.02;;;5.70;;
61015;SDS011;46902;52.920;6.536;2023-08-24T10:43:39;10.02;;;5.60;;
61015;SDS011;46902;52.920;6.536;2023-08-24T10:46:12;12.18;;;5.25;;
61015;SDS011;46902;52.920;6.536;2023-08-24T10:53:47;9.48;;;4.88;;
61015;SDS011;46902;52.920;6.536;2023-08-24T10:56:17;11.77;;;5.30;;
61015;SDS011;46902;52.920;6.536;2023-08-24T10:58:44;10.35;;;5.15;;
61015;SDS011;46902;52.920;6.536;2023-08-24T11:01:14;12.30;;;5.10;;
61015;SDS011;46902;52.920;6.536;2023-08-24T11:03:46;9.30;;;5.05;;
61015;SDS011;46902;52.920;6.536;2023-08-24T11:06:23;9.32;;;5.28;;
61015;SDS011;46902;52.920;6.536;2023-08-24T11:09:05;9.35;;;4.97;;
61015;SDS011;46902;52.920;6.536;2023-08-24T11:11:43;9.45;;;5.75;;
61015;SDS011;46902;52.920;6.536;2023-08-24T11:14:22;9.48;;;4.97;;
61015;SDS011;46902;52.920;6.536;2023-08-24T11:16:50;7.57;;;4.90;;
61015;SDS011;46902;52.920;6.536;2023-08-24T11:19:16;7.20;;;4.80;;
61015;SDS011;46902;52.920;6.536;2023-08-24T11:21:44;7.55;;;4.65;;
61015;SDS011;46902;52.920;6.536;2023-08-24T11:24:12;9.50;;;5.32;;
61015;SDS011;46902;52.920;6.536;2023-08-24T11:26:42;10.35;;;5.78;;
61015;SDS011;46902;52.920;6.536;2023-08-24T11:29:09;11.00;;;5.82;;
61015;SDS011;46902;52.920;6.536;2023-08-24T11:31:35;11.63;;;5.80;;
61015;SDS011;46902;52.920;6.536;2023-08-24T11:34:02;7.88;;;5.47;;
61015;SDS011;46902;52.920;6.536;2023-08-24T11:36:29;10.52;;;5.57;;
61015;SDS011;46902;52.920;6.536;2023-08-24T11:38:59;10.82;;;5.32;;
61015;SDS011;46902;52.920;6.536;2023-08-24T11:41:25;10.10;;;6.13;;
61015;SDS011;46902;52.920;6.536;2023-08-24T11:43:58;9.23;;;5.78;;
61015;SDS011;46902;52.920;6.536;2023-08-24T11:46:25;9.80;;;4.97;;
61015;SDS011;46902;52.920;6.536;2023-08-24T11:48:52;11.98;;;5.85;;
61015;SDS011;46902;52.920;6.536;2023-08-24T11:51:18;10.02;;;6.18;;
61015;SDS011;46902;52.920;6.536;2023-08-24T11:53:44;12.57;;;6.18;;
61015;SDS011;46902;52.920;6.536;2023-08-24T11:56:12;12.32;;;6.25;;
61015;SDS011;46902;52.920;6.536;2023-08-24T11:58:38;12.70;;;7.40;;
61015;SDS011;46902;52.920;6.536;2023-08-24T12:01:05;9.88;;;7.32;;
61015;SDS011;46902;52.920;6.536;2023-08-24T12:03:31;14.23;;;7.68;;
61015;SDS011;46902;52.920;6.536;2023-08-24T12:06:00;10.90;;;7.68;;
61015;SDS011;46902;52.920;6.536;2023-08-24T12:08:28;10.77;;;6.63;;
61015;SDS011;46902;52.920;6.536;2023-08-24T12:10:54;10.13;;;7.55;;
61015;SDS011;46902;52.920;6.536;2023-08-24T12:13:20;12.60;;;7.50;;
61015;SDS011;46902;52.920;6.536;2023-08-24T12:15:47;12.68;;;7.07;;
61015;SDS011;46902;52.920;6.536;2023-08-24T12:18:15;9.48;;;7.45;;
61015;SDS011;46902;52.920;6.536;2023-08-24T12:20:41;14.45;;;6.93;;
61015;SDS011;46902;52.920;6.536;2023-08-24T12:23:07;12.15;;;7.00;;
61015;SDS011;46902;52.920;6.536;2023-08-24T12:25:36;11.38;;;7.25;;
61015;SDS011;46902;52.920;6.536;2023-08-24T12:28:13;12.85;;;7.07;;
61015;SDS011;46902;52.920;6.536;2023-08-24T12:30:43;10.80;;;6.80;;
61015;SDS011;46902;52.920;6.536;2023-08-24T12:33:23;9.95;;;6.80;;
61015;SDS011;46902;52.920;6.536;2023-08-24T12:35:50;10.13;;;6.47;;
61015;SDS011;46902;52.920;6.536;2023-08-24T12:38:16;11.27;;;7.13;;
61015;SDS011;46902;52.920;6.536;2023-08-24T12:40:41;9.48;;;6.82;;
61015;SDS011;46902;52.920;6.536;2023-08-24T12:43:07;11.25;;;6.65;;
61015;SDS011;46902;52.920;6.536;2023-08-24T12:45:32;11.05;;;6.93;;
61015;SDS011;46902;52.920;6.536;2023-08-24T12:47:59;8.32;;;5.47;;
61015;SDS011;46902;52.920;6.536;2023-08-24T12:50:24;10.50;;;6.65;;
61015;SDS011;46902;52.920;6.536;2023-08-24T12:52:50;9.23;;;5.80;;
61015;SDS011;46902;52.920;6.536;2023-08-24T12:55:20;8.18;;;6.65;;
61015;SDS011;46902;52.920;6.536;2023-08-24T12:57:46;15.10;;;6.95;;
61015;SDS011;46902;52.920;6.536;2023-08-24T13:00:12;10.27;;;5.95;;
61015;SDS011;46902;52.920;6.536;2023-08-24T13:02:39;10.52;;;5.70;;
61015;SDS011;46902;52.920;6.536;2023-08-24T13:05:04;11.45;;;6.00;;
61015;SDS011;46902;52.920;6.536;2023-08-24T13:07:31;10.70;;;6.38;;
61015;SDS011;46902;52.920;6.536;2023-08-24T13:09:56;8.43;;;5.90;;
61015;SDS011;46902;52.920;6.536;2023-08-24T13:12:22;9.82;;;6.10;;
61015;SDS011;46902;52.920;6.536;2023-08-24T13:14:49;12.10;;;6.10;;
61015;SDS011;46902;52.920;6.536;2023-08-24T13:17:15;9.70;;;5.78;;
61015;SDS011;46902;52.920;6.536;2023-08-24T13:19:40;10.43;;;5.25;;
61015;SDS011;46902;52.920;6.536;2023-08-24T13:22:06;10.18;;;6.18;;
61015;SDS011;46902;52.920;6.536;2023-08-24T13:24:33;12.30;;;5.90;;
61015;SDS011;46902;52.920;6.536;2023-08-24T13:26:59;13.02;;;6.22;;
61015;SDS011;46902;52.920;6.536;2023-08-24T13:29:25;11.52;;;5.78;;
61015;SDS011;46902;52.920;6.536;2023-08-24T13:31:51;9.07;;;5.95;;
61015;SDS011;46902;52.920;6.536;2023-08-24T13:34:17;9.18;;;5.60;;
61015;SDS011;46902;52.920;6.536;2023-08-24T13:36:43;10.73;;;5.00;;
61015;SDS011;46902;52.920;6.536;2023-08-24T13:39:08;8.75;;;5.88;;
61015;SDS011;46902;52.920;6.536;2023-08-24T13:41:35;6.97;;;5.15;;
61015;SDS011;46902;52.920;6.536;2023-08-24T13:44:01;9.68;;;5.20;;
61015;SDS011;46902;52.920;6.536;2023-08-24T13:46:27;11.23;;;5.00;;
61015;SDS011;46902;52.920;6.536;2023-08-24T13:48:53;8.70;;;5.05;;
61015;SDS011;46902;52.920;6.536;2023-08-24T13:51:18;9.18;;;5.40;;
61015;SDS011;46902;52.920;6.536;2023-08-24T13:53:44;10.55;;;5.53;;
61015;SDS011;46902;52.920;6.536;2023-08-24T13:56:09;9.48;;;5.30;;
61015;SDS011;46902;52.920;6.536;2023-08-24T13:58:35;10.85;;;5.80;;
61015;SDS011;46902;52.920;6.536;2023-08-24T14:01:01;11.35;;;6.68;;
61015;SDS011;46902;52.920;6.536;2023-08-24T14:03:28;10.98;;;6.43;;
61015;SDS011;46902;52.920;6.536;2023-08-24T14:05:57;10.07;;;6.13;;
61015;SDS011;46902;52.920;6.536;2023-08-24T14:08:23;8.90;;;5.57;;
61015;SDS011;46902;52.920;6.536;2023-08-24T14:10:49;13.45;;;6.10;;
61015;SDS011;46902;52.920;6.536;2023-08-24T14:13:16;10.70;;;5.78;;
61015;SDS011;46902;52.920;6.536;2023-08-24T14:15:42;7.50;;;6.10;;
61015;SDS011;46902;52.920;6.536;2023-08-24T14:18:07;10.55;;;6.40;;
61015;SDS011;46902;52.920;6.536;2023-08-24T14:20:36;9.60;;;5.60;;
61015;SDS011;46902;52.920;6.536;2023-08-24T14:23:01;10.63;;;6.35;;
61015;SDS011;46902;52.920;6.536;2023-08-24T14:25:28;10.48;;;6.30;;
61015;SDS011;46902;52.920;6.536;2023-08-24T14:27:54;14.18;;;7.68;;
61015;SDS011;46902;52.920;6.536;2023-08-24T14:30:19;12.25;;;6.75;;
61015;SDS011;46902;52.920;6.536;2023-08-24T14:32:45;10.48;;;6.95;;
61015;SDS011;46902;52.920;6.536;2023-08-24T14:35:10;8.77;;;6.68;;
61015;SDS011;46902;52.920;6.536;2023-08-24T14:37:36;9.45;;;6.68;;
61015;SDS011;46902;52.920;6.536;2023-08-24T14:40:04;9.15;;;6.93;;
61015;SDS011;46902;52.920;6.536;2023-08-24T14:42:30;12.05;;;7.55;;
61015;SDS011;46902;52.920;6.536;2023-08-24T14:44:56;15.32;;;7.45;;
61015;SDS011;46902;52.920;6.536;2023-08-24T14:47:22;12.32;;;6.60;;
61015;SDS011;46902;52.920;6.536;2023-08-24T14:49:47;9.80;;;6.38;;